sensor_id;sensor_type;location;lat;lon;timestamp;P1;durP1;ratioP1;P2;durP2;ratioP2
67839;SDS011;54636;51.684;5.142;2022-07-24T00:00:52;9.45;;;7.32;;
67839;SDS011;54636;51.684;5.142;2022-07-24T00:03:17;8.70;;;7.35;;
67839;SDS011;54636;51.684;5.142;2022-07-24T00:05:43;11.15;;;7.32;;
67839;SDS011;54636;51.684;5.142;2022-07-24T00:08:10;9.13;;;8.23;;
67839;SDS011;54636;51.684;5.142;2022-07-24T00:10:36;8.20;;;7.50;;
67839;SDS011;54636;51.684;5.142;2022-07-24T00:13:02;8.95;;;8.25;;
67839;SDS011;54636;51.684;5.142;2022-07-24T00:15:27;8.95;;;8.18;;
67839;SDS011;54636;51.684;5.142;2022-07-24T00:17:53;9.25;;;8.15;;
67839;SDS011;54636;51.684;5.142;2022-07-24T00:20:18;9.85;;;8.93;;
67839;SDS011;54636;51.684;5.142;2022-07-24T00:22:44;9.63;;;8.68;;
67839;SDS011;54636;51.684;5.142;2022-07-24T00:25:09;8.90;;;8.10;;
67839;SDS011;54636;51.684;5.142;2022-07-24T00:27:34;11.02;;;9.40;;
67839;SDS011;54636;51.684;5.142;2022-07-24T00:30:00;9.88;;;8.98;;
67839;SDS011;54636;51.684;5.142;2022-07-24T00:32:25;10.55;;;8.88;;
67839;SDS011;54636;51.684;5.142;2022-07-24T00:34:51;9.13;;;8.43;;
67839;SDS011;54636;51.684;5.142;2022-07-24T00:37:16;13.45;;;8.50;;
67839;SDS011;54636;51.684;5.142;2022-07-24T00:39:42;9.82;;;8.80;;
67839;SDS011;54636;51.684;5.142;2022-07-24T00:42:07;10.07;;;9.18;;
67839;SDS011;54636;51.684;5.142;2022-07-24T00:44:32;9.77;;;8.57;;
67839;SDS011;54636;51.684;5.142;2022-07-24T00:46:58;12.63;;;8.25;;
67839;SDS011;54636;51.684;5.142;2022-07-24T00:49:23;9.57;;;8.75;;
67839;SDS011;54636;51.684;5.142;2022-07-24T00:51:50;9.32;;;8.57;;
67839;SDS011;54636;51.684;5.142;2022-07-24T00:54:17;10.52;;;8.95;;
67839;SDS011;54636;51.684;5.142;2022-07-24T00:56:44;9.73;;;8.80;;
67839;SDS011;54636;51.684;5.142;2022-07-24T00:59:11;9.00;;;8.13;;
67839;SDS011;54636;51.684;5.142;2022-07-24T01:01:37;9.07;;;8.18;;
67839;SDS011;54636;51.684;5.142;2022-07-24T01:04:03;9.57;;;8.68;;
67839;SDS011;54636;51.684;5.142;2022-07-24T01:06:28;9.70;;;8.82;;
67839;SDS011;54636;51.684;5.142;2022-07-24T01:08:54;10.38;;;9.45;;
67839;SDS011;54636;51.684;5.142;2022-07-24T01:11:20;10.38;;;9.52;;
67839;SDS011;54636;51.684;5.142;2022-07-24T01:13:48;10.10;;;9.27;;
67839;SDS011;54636;51.684;5.142;2022-07-24T01:16:17;11.10;;;9.97;;
67839;SDS011;54636;51.684;5.142;2022-07-24T01:18:43;13.25;;;8.88;;
67839;SDS011;54636;51.684;5.142;2022-07-24T01:21:08;10.77;;;9.73;;
67839;SDS011;54636;51.684;5.142;2022-07-24T01:23:35;10.63;;;9.35;;
67839;SDS011;54636;51.684;5.142;2022-07-24T01:26:01;10.57;;;8.93;;
67839;SDS011;54636;51.684;5.142;2022-07-24T01:28:27;10.75;;;9.73;;
67839;SDS011;54636;51.684;5.142;2022-07-24T01:30:52;9.73;;;8.82;;
67839;SDS011;54636;51.684;5.142;2022-07-24T01:33:18;10.27;;;9.27;;
67839;SDS011;54636;51.684;5.142;2022-07-24T01:35:43;10.38;;;9.45;;
67839;SDS011;54636;51.684;5.142;2022-07-24T01:38:09;11.93;;;9.73;;
67839;SDS011;54636;51.684;5.142;2022-07-24T01:40:36;9.20;;;8.07;;
67839;SDS011;54636;51.684;5.142;2022-07-24T01:43:01;11.85;;;9.27;;
67839;SDS011;54636;51.684;5.142;2022-07-24T01:45:27;10.80;;;9.70;;
67839;SDS011;54636;51.684;5.142;2022-07-24T01:47:53;10.65;;;9.60;;
67839;SDS011;54636;51.684;5.142;2022-07-24T01:50:18;9.70;;;8.45;;
67839;SDS011;54636;51.684;5.142;2022-07-24T01:52:44;10.73;;;9.63;;
67839;SDS011;54636;51.684;5.142;2022-07-24T01:55:10;11.07;;;9.25;;
67839;SDS011;54636;51.684;5.142;2022-07-24T01:57:35;15.90;;;10.13;;
67839;SDS011;54636;51.684;5.142;2022-07-24T02:00:01;10.60;;;9.63;;
67839;SDS011;54636;51.684;5.142;2022-07-24T02:02:30;10.45;;;9.52;;
67839;SDS011;54636;51.684;5.142;2022-07-24T02:04:55;10.95;;;9.95;;
67839;SDS011;54636;51.684;5.142;2022-07-24T02:07:21;10.15;;;9.07;;
67839;SDS011;54636;51.684;5.142;2022-07-24T02:09:46;10.60;;;9.30;;
67839;SDS011;54636;51.684;5.142;2022-07-24T02:12:12;11.80;;;9.68;;
67839;SDS011;54636;51.684;5.142;2022-07-24T02:14:37;12.68;;;10.48;;
67839;SDS011;54636;51.684;5.142;2022-07-24T02:17:03;12.75;;;10.55;;
67839;SDS011;54636;51.684;5.142;2022-07-24T02:19:29;11.07;;;9.52;;
67839;SDS011;54636;51.684;5.142;2022-07-24T02:21:54;11.05;;;10.00;;
67839;SDS011;54636;51.684;5.142;2022-07-24T02:24:20;10.70;;;9.60;;
67839;SDS011;54636;51.684;5.142;2022-07-24T02:26:47;12.15;;;10.25;;
67839;SDS011;54636;51.684;5.142;2022-07-24T02:29:12;12.77;;;10.25;;
67839;SDS011;54636;51.684;5.142;2022-07-24T02:31:37;10.93;;;9.95;;
67839;SDS011;54636;51.684;5.142;2022-07-24T02:34:03;13.48;;;10.63;;
67839;SDS011;54636;51.684;5.142;2022-07-24T02:36:28;12.60;;;10.60;;
67839;SDS011;54636;51.684;5.142;2022-07-24T02:38:53;12.07;;;10.88;;
67839;SDS011;54636;51.684;5.142;2022-07-24T02:41:19;12.00;;;10.90;;
67839;SDS011;54636;51.684;5.142;2022-07-24T02:43:47;24.42;;;11.70;;
67839;SDS011;54636;51.684;5.142;2022-07-24T02:46:12;12.65;;;10.82;;
67839;SDS011;54636;51.684;5.142;2022-07-24T02:48:37;13.15;;;12.00;;
67839;SDS011;54636;51.684;5.142;2022-07-24T02:51:03;12.65;;;11.48;;
67839;SDS011;54636;51.684;5.142;2022-07-24T02:53:28;13.75;;;12.55;;
67839;SDS011;54636;51.684;5.142;2022-07-24T02:55:54;14.40;;;13.10;;
67839;SDS011;54636;51.684;5.142;2022-07-24T02:58:20;15.27;;;13.35;;
67839;SDS011;54636;51.684;5.142;2022-07-24T03:00:45;14.73;;;13.25;;
67839;SDS011;54636;51.684;5.142;2022-07-24T03:03:11;15.85;;;13.93;;
67839;SDS011;54636;51.684;5.142;2022-07-24T03:05:36;16.20;;;14.10;;
67839;SDS011;54636;51.684;5.142;2022-07-24T03:08:01;15.45;;;13.80;;
67839;SDS011;54636;51.684;5.142;2022-07-24T03:10:27;15.50;;;13.63;;
67839;SDS011;54636;51.684;5.142;2022-07-24T03:12:52;20.92;;;14.45;;
67839;SDS011;54636;51.684;5.142;2022-07-24T03:15:18;16.40;;;14.88;;
67839;SDS011;54636;51.684;5.142;2022-07-24T03:17:54;16.05;;;14.48;;
67839;SDS011;54636;51.684;5.142;2022-07-24T03:20:21;17.80;;;15.40;;
67839;SDS011;54636;51.684;5.142;2022-07-24T03:22:48;19.00;;;16.02;;
67839;SDS011;54636;51.684;5.142;2022-07-24T03:25:14;18.63;;;15.80;;
67839;SDS011;54636;51.684;5.142;2022-07-24T03:27:40;21.73;;;17.60;;
67839;SDS011;54636;51.684;5.142;2022-07-24T03:30:06;22.00;;;17.95;;
67839;SDS011;54636;51.684;5.142;2022-07-24T03:32:32;24.55;;;19.45;;
67839;SDS011;54636;51.684;5.142;2022-07-24T03:34:57;25.15;;;19.38;;
67839;SDS011;54636;51.684;5.142;2022-07-24T03:37:23;30.45;;;19.48;;
67839;SDS011;54636;51.684;5.142;2022-07-24T03:39:48;29.08;;;21.23;;
67839;SDS011;54636;51.684;5.142;2022-07-24T03:42:14;26.40;;;21.42;;
67839;SDS011;54636;51.684;5.142;2022-07-24T03:44:39;28.35;;;19.75;;
67839;SDS011;54636;51.684;5.142;2022-07-24T03:47:05;22.95;;;20.50;;
67839;SDS011;54636;51.684;5.142;2022-07-24T03:49:30;24.52;;;19.75;;
67839;SDS011;54636;51.684;5.142;2022-07-24T03:51:55;30.70;;;20.83;;
67839;SDS011;54636;51.684;5.142;2022-07-24T03:54:21;25.77;;;19.75;;
67839;SDS011;54636;51.684;5.142;2022-07-24T03:56:47;25.92;;;20.42;;
67839;SDS011;54636;51.684;5.142;2022-07-24T03:59:13;29.08;;;20.90;;
67839;SDS011;54636;51.684;5.142;2022-07-24T04:01:38;24.40;;;19.13;;
67839;SDS011;54636;51.684;5.142;2022-07-24T04:04:04;24.90;;;18.42;;
67839;SDS011;54636;51.684;5.142;2022-07-24T04:06:33;28.33;;;20.23;;
67839;SDS011;54636;51.684;5.142;2022-07-24T04:08:59;24.38;;;20.63;;
67839;SDS011;54636;51.684;5.142;2022-07-24T04:11:26;29.42;;;20.23;;
67839;SDS011;54636;51.684;5.142;2022-07-24T04:13:51;30.17;;;21.05;;
67839;SDS011;54636;51.684;5.142;2022-07-24T04:16:16;28.88;;;20.17;;
67839;SDS011;54636;51.684;5.142;2022-07-24T04:18:42;28.35;;;21.33;;
67839;SDS011;54636;51.684;5.142;2022-07-24T04:21:07;22.95;;;19.75;;
67839;SDS011;54636;51.684;5.142;2022-07-24T04:23:33;24.65;;;20.20;;
67839;SDS011;54636;51.684;5.142;2022-07-24T04:25:59;27.98;;;21.40;;
67839;SDS011;54636;51.684;5.142;2022-07-24T04:28:24;31.45;;;20.80;;
67839;SDS011;54636;51.684;5.142;2022-07-24T04:30:53;24.70;;;20.05;;
67839;SDS011;54636;51.684;5.142;2022-07-24T04:33:18;31.17;;;20.85;;
67839;SDS011;54636;51.684;5.142;2022-07-24T04:35:43;32.90;;;19.52;;
67839;SDS011;54636;51.684;5.142;2022-07-24T04:38:09;26.58;;;20.13;;
67839;SDS011;54636;51.684;5.142;2022-07-24T04:40:34;26.10;;;19.38;;
67839;SDS011;54636;51.684;5.142;2022-07-24T04:43:00;24.05;;;19.60;;
67839;SDS011;54636;51.684;5.142;2022-07-24T04:45:25;26.38;;;19.33;;
67839;SDS011;54636;51.684;5.142;2022-07-24T04:47:51;25.45;;;18.83;;
67839;SDS011;54636;51.684;5.142;2022-07-24T04:50:16;26.30;;;17.60;;
67839;SDS011;54636;51.684;5.142;2022-07-24T04:52:42;20.75;;;16.52;;
67839;SDS011;54636;51.684;5.142;2022-07-24T04:55:08;22.60;;;17.98;;
67839;SDS011;54636;51.684;5.142;2022-07-24T04:57:34;19.27;;;16.70;;
67839;SDS011;54636;51.684;5.142;2022-07-24T05:00:00;27.60;;;18.38;;
67839;SDS011;54636;51.684;5.142;2022-07-24T05:02:25;25.27;;;16.60;;
67839;SDS011;54636;51.684;5.142;2022-07-24T05:04:50;22.23;;;16.88;;
67839;SDS011;54636;51.684;5.142;2022-07-24T05:07:16;19.10;;;17.05;;
67839;SDS011;54636;51.684;5.142;2022-07-24T05:09:42;20.77;;;16.52;;
67839;SDS011;54636;51.684;5.142;2022-07-24T05:12:07;22.00;;;16.60;;
67839;SDS011;54636;51.684;5.142;2022-07-24T05:14:33;19.65;;;16.15;;
67839;SDS011;54636;51.684;5.142;2022-07-24T05:16:58;20.45;;;15.93;;
67839;SDS011;54636;51.684;5.142;2022-07-24T05:19:24;22.13;;;16.80;;
67839;SDS011;54636;51.684;5.142;2022-07-24T05:21:49;24.02;;;16.98;;
67839;SDS011;54636;51.684;5.142;2022-07-24T05:24:14;23.98;;;17.52;;
67839;SDS011;54636;51.684;5.142;2022-07-24T05:26:40;27.70;;;16.77;;
67839;SDS011;54636;51.684;5.142;2022-07-24T05:29:05;20.85;;;15.77;;
67839;SDS011;54636;51.684;5.142;2022-07-24T05:31:31;20.95;;;16.00;;
67839;SDS011;54636;51.684;5.142;2022-07-24T05:33:58;21.92;;;16.40;;
67839;SDS011;54636;51.684;5.142;2022-07-24T05:36:24;20.73;;;17.42;;
67839;SDS011;54636;51.684;5.142;2022-07-24T05:38:50;20.35;;;17.08;;
67839;SDS011;54636;51.684;5.142;2022-07-24T05:41:15;21.35;;;16.75;;
67839;SDS011;54636;51.684;5.142;2022-07-24T05:43:41;21.10;;;16.65;;
67839;SDS011;54636;51.684;5.142;2022-07-24T05:46:06;24.65;;;16.35;;
67839;SDS011;54636;51.684;5.142;2022-07-24T05:48:32;22.85;;;17.75;;
67839;SDS011;54636;51.684;5.142;2022-07-24T05:50:57;27.70;;;16.95;;
67839;SDS011;54636;51.684;5.142;2022-07-24T05:53:23;19.35;;;16.08;;
67839;SDS011;54636;51.684;5.142;2022-07-24T05:55:49;23.85;;;19.20;;
67839;SDS011;54636;51.684;5.142;2022-07-24T05:58:15;20.77;;;17.88;;
67839;SDS011;54636;51.684;5.142;2022-07-24T06:00:41;25.33;;;18.98;;
67839;SDS011;54636;51.684;5.142;2022-07-24T06:03:07;24.40;;;19.60;;
67839;SDS011;54636;51.684;5.142;2022-07-24T06:05:32;23.75;;;18.02;;
67839;SDS011;54636;51.684;5.142;2022-07-24T06:07:58;20.55;;;16.50;;
67839;SDS011;54636;51.684;5.142;2022-07-24T06:10:24;20.92;;;18.00;;
67839;SDS011;54636;51.684;5.142;2022-07-24T06:12:49;24.20;;;17.30;;
67839;SDS011;54636;51.684;5.142;2022-07-24T06:15:15;25.15;;;15.65;;
67839;SDS011;54636;51.684;5.142;2022-07-24T06:17:40;19.85;;;16.15;;
67839;SDS011;54636;51.684;5.142;2022-07-24T06:20:06;14.82;;;13.27;;
67839;SDS011;54636;51.684;5.142;2022-07-24T06:22:33;20.23;;;14.25;;
67839;SDS011;54636;51.684;5.142;2022-07-24T06:24:58;15.82;;;14.23;;
67839;SDS011;54636;51.684;5.142;2022-07-24T06:27:24;16.00;;;13.43;;
67839;SDS011;54636;51.684;5.142;2022-07-24T06:29:49;17.45;;;13.40;;
67839;SDS011;54636;51.684;5.142;2022-07-24T06:32:15;23.13;;;14.18;;
67839;SDS011;54636;51.684;5.142;2022-07-24T06:34:40;21.42;;;13.13;;
67839;SDS011;54636;51.684;5.142;2022-07-24T06:37:05;16.20;;;12.10;;
67839;SDS011;54636;51.684;5.142;2022-07-24T06:39:31;14.43;;;11.73;;
67839;SDS011;54636;51.684;5.142;2022-07-24T06:41:57;19.63;;;12.10;;
67839;SDS011;54636;51.684;5.142;2022-07-24T06:44:22;14.40;;;11.32;;
67839;SDS011;54636;51.684;5.142;2022-07-24T06:46:48;11.40;;;10.23;;
67839;SDS011;54636;51.684;5.142;2022-07-24T06:49:14;12.57;;;9.73;;
67839;SDS011;54636;51.684;5.142;2022-07-24T06:51:39;10.55;;;8.95;;
67839;SDS011;54636;51.684;5.142;2022-07-24T06:54:05;12.10;;;9.25;;
67839;SDS011;54636;51.684;5.142;2022-07-24T06:56:31;10.90;;;8.65;;
67839;SDS011;54636;51.684;5.142;2022-07-24T06:58:56;9.45;;;8.30;;
67839;SDS011;54636;51.684;5.142;2022-07-24T07:01:23;9.68;;;7.70;;
67839;SDS011;54636;51.684;5.142;2022-07-24T07:03:51;7.35;;;6.75;;
67839;SDS011;54636;51.684;5.142;2022-07-24T07:06:17;7.20;;;6.50;;
67839;SDS011;54636;51.684;5.142;2022-07-24T07:08:42;5.78;;;5.25;;
67839;SDS011;54636;51.684;5.142;2022-07-24T07:11:08;6.25;;;5.63;;
67839;SDS011;54636;51.684;5.142;2022-07-24T07:13:33;8.65;;;5.05;;
67839;SDS011;54636;51.684;5.142;2022-07-24T07:15:59;6.35;;;5.50;;
67839;SDS011;54636;51.684;5.142;2022-07-24T07:18:25;13.05;;;4.47;;
67839;SDS011;54636;51.684;5.142;2022-07-24T07:20:50;5.10;;;4.47;;
67839;SDS011;54636;51.684;5.142;2022-07-24T07:23:22;5.95;;;4.55;;
67839;SDS011;54636;51.684;5.142;2022-07-24T07:25:48;5.53;;;4.20;;
67839;SDS011;54636;51.684;5.142;2022-07-24T07:28:14;4.18;;;3.85;;
67839;SDS011;54636;51.684;5.142;2022-07-24T07:30:40;4.05;;;3.75;;
67839;SDS011;54636;51.684;5.142;2022-07-24T07:33:05;5.13;;;4.63;;
67839;SDS011;54636;51.684;5.142;2022-07-24T07:35:30;5.28;;;4.78;;
67839;SDS011;54636;51.684;5.142;2022-07-24T07:37:56;4.80;;;4.50;;
67839;SDS011;54636;51.684;5.142;2022-07-24T07:40:21;6.35;;;4.65;;
67839;SDS011;54636;51.684;5.142;2022-07-24T07:42:47;4.88;;;4.05;;
67839;SDS011;54636;51.684;5.142;2022-07-24T07:45:12;4.60;;;4.00;;
67839;SDS011;54636;51.684;5.142;2022-07-24T07:47:38;4.60;;;3.85;;
67839;SDS011;54636;51.684;5.142;2022-07-24T07:50:04;4.10;;;3.70;;
67839;SDS011;54636;51.684;5.142;2022-07-24T07:52:30;4.50;;;4.10;;
67839;SDS011;54636;51.684;5.142;2022-07-24T07:54:55;4.90;;;4.50;;
67839;SDS011;54636;51.684;5.142;2022-07-24T07:57:21;6.75;;;3.08;;
67839;SDS011;54636;51.684;5.142;2022-07-24T07:59:47;5.03;;;4.40;;
67839;SDS011;54636;51.684;5.142;2022-07-24T08:02:12;4.47;;;4.07;;
67839;SDS011;54636;51.684;5.142;2022-07-24T08:04:38;3.85;;;3.60;;
67839;SDS011;54636;51.684;5.142;2022-07-24T08:07:03;5.90;;;4.38;;
67839;SDS011;54636;51.684;5.142;2022-07-24T08:09:29;5.45;;;3.97;;
67839;SDS011;54636;51.684;5.142;2022-07-24T08:11:54;3.92;;;3.60;;
67839;SDS011;54636;51.684;5.142;2022-07-24T08:14:19;5.90;;;3.22;;
67839;SDS011;54636;51.684;5.142;2022-07-24T08:16:45;3.88;;;3.22;;
67839;SDS011;54636;51.684;5.142;2022-07-24T08:19:10;4.10;;;3.75;;
67839;SDS011;54636;51.684;5.142;2022-07-24T08:21:36;5.55;;;3.70;;
67839;SDS011;54636;51.684;5.142;2022-07-24T08:24:02;3.95;;;3.42;;
67839;SDS011;54636;51.684;5.142;2022-07-24T08:26:28;3.17;;;2.83;;
67839;SDS011;54636;51.684;5.142;2022-07-24T08:28:56;4.00;;;3.30;;
67839;SDS011;54636;51.684;5.142;2022-07-24T08:31:23;3.47;;;2.80;;
67839;SDS011;54636;51.684;5.142;2022-07-24T08:33:50;3.67;;;2.60;;
67839;SDS011;54636;51.684;5.142;2022-07-24T08:36:15;3.88;;;2.25;;
67839;SDS011;54636;51.684;5.142;2022-07-24T08:38:41;2.88;;;2.10;;
67839;SDS011;54636;51.684;5.142;2022-07-24T08:41:07;3.08;;;2.78;;
67839;SDS011;54636;51.684;5.142;2022-07-24T08:43:32;3.10;;;2.65;;
67839;SDS011;54636;51.684;5.142;2022-07-24T08:45:57;3.00;;;2.80;;
67839;SDS011;54636;51.684;5.142;2022-07-24T08:48:26;3.13;;;2.90;;
67839;SDS011;54636;51.684;5.142;2022-07-24T08:50:52;9.75;;;3.08;;
67839;SDS011;54636;51.684;5.142;2022-07-24T08:53:19;3.95;;;2.83;;
67839;SDS011;54636;51.684;5.142;2022-07-24T08:55:47;5.18;;;2.50;;
67839;SDS011;54636;51.684;5.142;2022-07-24T08:58:13;5.72;;;3.15;;
67839;SDS011;54636;51.684;5.142;2022-07-24T09:00:39;7.68;;;2.50;;
67839;SDS011;54636;51.684;5.142;2022-07-24T09:03:04;2.60;;;2.50;;
67839;SDS011;54636;51.684;5.142;2022-07-24T09:05:30;3.42;;;2.53;;
67839;SDS011;54636;51.684;5.142;2022-07-24T09:08:06;2.97;;;2.40;;
67839;SDS011;54636;51.684;5.142;2022-07-24T09:10:35;6.72;;;2.55;;
67839;SDS011;54636;51.684;5.142;2022-07-24T09:13:11;2.20;;;2.10;;
67839;SDS011;54636;51.684;5.142;2022-07-24T09:15:56;2.17;;;2.08;;
67839;SDS011;54636;51.684;5.142;2022-07-24T09:18:29;3.20;;;2.55;;
67839;SDS011;54636;51.684;5.142;2022-07-24T09:20:57;4.70;;;2.35;;
67839;SDS011;54636;51.684;5.142;2022-07-24T09:23:23;3.38;;;2.65;;
67839;SDS011;54636;51.684;5.142;2022-07-24T09:25:49;3.17;;;2.03;;
67839;SDS011;54636;51.684;5.142;2022-07-24T09:28:16;2.55;;;2.33;;
67839;SDS011;54636;51.684;5.142;2022-07-24T09:30:42;3.88;;;1.90;;
67839;SDS011;54636;51.684;5.142;2022-07-24T09:38:05;4.22;;;2.60;;
67839;SDS011;54636;51.684;5.142;2022-07-24T09:40:33;2.22;;;2.13;;
67839;SDS011;54636;51.684;5.142;2022-07-24T09:51:16;5.43;;;2.00;;
67839;SDS011;54636;51.684;5.142;2022-07-24T09:53:42;2.25;;;2.15;;
67839;SDS011;54636;51.684;5.142;2022-07-24T09:56:10;2.10;;;1.90;;
67839;SDS011;54636;51.684;5.142;2022-07-24T09:58:38;6.07;;;2.20;;
67839;SDS011;54636;51.684;5.142;2022-07-24T10:01:06;2.38;;;1.90;;
67839;SDS011;54636;51.684;5.142;2022-07-24T10:03:36;2.15;;;2.05;;
67839;SDS011;54636;51.684;5.142;2022-07-24T10:06:04;2.25;;;1.92;;
67839;SDS011;54636;51.684;5.142;2022-07-24T10:08:32;4.05;;;1.75;;
67839;SDS011;54636;51.684;5.142;2022-07-24T10:10:59;3.67;;;1.85;;
67839;SDS011;54636;51.684;5.142;2022-07-24T10:13:25;3.35;;;1.88;;
67839;SDS011;54636;51.684;5.142;2022-07-24T10:16:02;3.65;;;1.92;;
67839;SDS011;54636;51.684;5.142;2022-07-24T10:21:07;1.83;;;1.73;;
67839;SDS011;54636;51.684;5.142;2022-07-24T10:23:47;4.88;;;2.00;;
67839;SDS011;54636;51.684;5.142;2022-07-24T10:26:24;1.80;;;1.70;;
67839;SDS011;54636;51.684;5.142;2022-07-24T10:29:10;2.55;;;1.70;;
67839;SDS011;54636;51.684;5.142;2022-07-24T10:31:44;1.80;;;1.70;;
67839;SDS011;54636;51.684;5.142;2022-07-24T10:40:04;1.60;;;1.50;;
67839;SDS011;54636;51.684;5.142;2022-07-24T10:42:31;4.22;;;1.65;;
67839;SDS011;54636;51.684;5.142;2022-07-24T10:45:16;3.85;;;1.75;;
67839;SDS011;54636;51.684;5.142;2022-07-24T10:47:43;1.98;;;1.80;;
67839;SDS011;54636;51.684;5.142;2022-07-24T10:50:09;2.38;;;1.63;;
67839;SDS011;54636;51.684;5.142;2022-07-24T10:52:35;6.13;;;1.70;;
67839;SDS011;54636;51.684;5.142;2022-07-24T11:00:36;3.83;;;1.73;;
67839;SDS011;54636;51.684;5.142;2022-07-24T11:03:17;1.65;;;1.55;;
67839;SDS011;54636;51.684;5.142;2022-07-24T11:05:52;1.80;;;1.70;;
67839;SDS011;54636;51.684;5.142;2022-07-24T11:08:27;1.58;;;1.48;;
67839;SDS011;54636;51.684;5.142;2022-07-24T11:11:04;6.50;;;1.40;;
67839;SDS011;54636;51.684;5.142;2022-07-24T11:18:38;6.28;;;1.83;;
67839;SDS011;54636;51.684;5.142;2022-07-24T11:21:31;2.67;;;1.73;;
67839;SDS011;54636;51.684;5.142;2022-07-24T11:26:48;3.65;;;1.70;;
67839;SDS011;54636;51.684;5.142;2022-07-24T11:31:48;3.03;;;1.55;;
67839;SDS011;54636;51.684;5.142;2022-07-24T11:34:22;1.90;;;1.80;;
67839;SDS011;54636;51.684;5.142;2022-07-24T11:36:48;3.30;;;1.63;;
67839;SDS011;54636;51.684;5.142;2022-07-24T11:39:19;3.60;;;1.70;;
67839;SDS011;54636;51.684;5.142;2022-07-24T11:41:51;3.28;;;1.60;;
67839;SDS011;54636;51.684;5.142;2022-07-24T11:44:26;1.88;;;1.45;;
67839;SDS011;54636;51.684;5.142;2022-07-24T11:46:53;5.75;;;1.63;;
67839;SDS011;54636;51.684;5.142;2022-07-24T11:49:21;5.50;;;1.53;;
67839;SDS011;54636;51.684;5.142;2022-07-24T11:51:48;1.52;;;1.48;;
67839;SDS011;54636;51.684;5.142;2022-07-24T11:54:20;1.33;;;1.33;;
67839;SDS011;54636;51.684;5.142;2022-07-24T11:56:50;2.53;;;1.60;;
67839;SDS011;54636;51.684;5.142;2022-07-24T12:01:51;1.73;;;1.50;;
67839;SDS011;54636;51.684;5.142;2022-07-24T12:04:20;1.50;;;1.35;;
67839;SDS011;54636;51.684;5.142;2022-07-24T12:06:46;1.17;;;1.10;;
67839;SDS011;54636;51.684;5.142;2022-07-24T12:09:12;2.20;;;1.38;;
67839;SDS011;54636;51.684;5.142;2022-07-24T12:11:37;2.00;;;1.33;;
67839;SDS011;54636;51.684;5.142;2022-07-24T12:14:16;1.75;;;1.65;;
67839;SDS011;54636;51.684;5.142;2022-07-24T12:16:43;1.98;;;1.70;;
67839;SDS011;54636;51.684;5.142;2022-07-24T12:19:17;1.48;;;1.35;;
67839;SDS011;54636;51.684;5.142;2022-07-24T12:21:44;3.20;;;1.30;;
67839;SDS011;54636;51.684;5.142;2022-07-24T12:24:11;1.77;;;1.40;;
67839;SDS011;54636;51.684;5.142;2022-07-24T12:26:50;1.85;;;1.40;;
67839;SDS011;54636;51.684;5.142;2022-07-24T12:29:16;2.20;;;1.38;;
67839;SDS011;54636;51.684;5.142;2022-07-24T12:31:42;2.67;;;1.42;;
67839;SDS011;54636;51.684;5.142;2022-07-24T12:34:08;3.55;;;1.67;;
67839;SDS011;54636;51.684;5.142;2022-07-24T12:36:33;1.80;;;1.60;;
67839;SDS011;54636;51.684;5.142;2022-07-24T12:38:59;2.53;;;1.23;;
67839;SDS011;54636;51.684;5.142;2022-07-24T12:41:25;5.20;;;1.48;;
67839;SDS011;54636;51.684;5.142;2022-07-24T12:49:11;2.63;;;1.65;;
67839;SDS011;54636;51.684;5.142;2022-07-24T12:51:56;1.70;;;1.50;;
67839;SDS011;54636;51.684;5.142;2022-07-24T12:56:55;1.77;;;1.63;;
67839;SDS011;54636;51.684;5.142;2022-07-24T13:01:52;7.55;;;6.85;;
67839;SDS011;54636;51.684;5.142;2022-07-24T13:04:21;4.40;;;4.15;;
67839;SDS011;54636;51.684;5.142;2022-07-24T13:06:49;5.60;;;1.90;;
67839;SDS011;54636;51.684;5.142;2022-07-24T13:09:17;3.42;;;2.08;;
67839;SDS011;54636;51.684;5.142;2022-07-24T13:11:44;2.75;;;2.55;;
67839;SDS011;54636;51.684;5.142;2022-07-24T13:14:11;13.35;;;11.85;;
67839;SDS011;54636;51.684;5.142;2022-07-24T13:16:39;3.75;;;3.45;;
67839;SDS011;54636;51.684;5.142;2022-07-24T13:19:06;2.67;;;2.45;;
67839;SDS011;54636;51.684;5.142;2022-07-24T13:21:32;2.42;;;2.30;;
67839;SDS011;54636;51.684;5.142;2022-07-24T13:23:58;8.70;;;7.60;;
67839;SDS011;54636;51.684;5.142;2022-07-24T13:26:23;3.85;;;2.60;;
67839;SDS011;54636;51.684;5.142;2022-07-24T13:28:49;3.40;;;3.20;;
67839;SDS011;54636;51.684;5.142;2022-07-24T13:31:15;5.65;;;5.22;;
67839;SDS011;54636;51.684;5.142;2022-07-24T13:33:42;5.07;;;4.57;;
67839;SDS011;54636;51.684;5.142;2022-07-24T13:36:07;11.60;;;7.43;;
67839;SDS011;54636;51.684;5.142;2022-07-24T13:38:33;3.53;;;3.22;;
67839;SDS011;54636;51.684;5.142;2022-07-24T13:40:58;3.25;;;1.90;;
67839;SDS011;54636;51.684;5.142;2022-07-24T13:43:24;7.40;;;1.95;;
67839;SDS011;54636;51.684;5.142;2022-07-24T13:45:50;5.03;;;3.40;;
67839;SDS011;54636;51.684;5.142;2022-07-24T13:48:17;7.32;;;6.70;;
67839;SDS011;54636;51.684;5.142;2022-07-24T13:50:42;5.28;;;2.25;;
67839;SDS011;54636;51.684;5.142;2022-07-24T13:53:08;4.68;;;4.38;;
67839;SDS011;54636;51.684;5.142;2022-07-24T13:55:33;3.08;;;1.92;;
67839;SDS011;54636;51.684;5.142;2022-07-24T13:57:59;3.20;;;2.30;;
67839;SDS011;54636;51.684;5.142;2022-07-24T14:00:24;2.38;;;1.55;;
67839;SDS011;54636;51.684;5.142;2022-07-24T14:02:50;3.55;;;1.70;;
67839;SDS011;54636;51.684;5.142;2022-07-24T14:05:20;1.67;;;1.33;;
67839;SDS011;54636;51.684;5.142;2022-07-24T14:07:47;1.77;;;1.27;;
67839;SDS011;54636;51.684;5.142;2022-07-24T14:10:12;3.42;;;1.50;;
67839;SDS011;54636;51.684;5.142;2022-07-24T14:12:38;1.55;;;1.10;;
67839;SDS011;54636;51.684;5.142;2022-07-24T14:15:03;1.92;;;1.48;;
67839;SDS011;54636;51.684;5.142;2022-07-24T14:17:29;2.72;;;1.60;;
67839;SDS011;54636;51.684;5.142;2022-07-24T14:19:55;7.50;;;6.78;;
67839;SDS011;54636;51.684;5.142;2022-07-24T14:22:21;4.15;;;2.05;;
67839;SDS011;54636;51.684;5.142;2022-07-24T14:24:46;1.58;;;1.48;;
67839;SDS011;54636;51.684;5.142;2022-07-24T14:27:12;2.13;;;2.03;;
67839;SDS011;54636;51.684;5.142;2022-07-24T14:29:37;1.52;;;1.48;;
67839;SDS011;54636;51.684;5.142;2022-07-24T14:32:03;1.88;;;1.77;;
67839;SDS011;54636;51.684;5.142;2022-07-24T14:34:29;1.73;;;1.30;;
67839;SDS011;54636;51.684;5.142;2022-07-24T14:36:54;2.60;;;1.35;;
67839;SDS011;54636;51.684;5.142;2022-07-24T14:39:20;2.40;;;1.70;;
67839;SDS011;54636;51.684;5.142;2022-07-24T14:41:45;1.60;;;1.50;;
67839;SDS011;54636;51.684;5.142;2022-07-24T14:44:10;1.92;;;1.58;;
67839;SDS011;54636;51.684;5.142;2022-07-24T14:46:36;1.40;;;1.30;;
67839;SDS011;54636;51.684;5.142;2022-07-24T14:49:03;1.90;;;1.77;;
67839;SDS011;54636;51.684;5.142;2022-07-24T14:51:29;1.60;;;1.50;;
67839;SDS011;54636;51.684;5.142;2022-07-24T14:53:54;1.35;;;1.25;;
67839;SDS011;54636;51.684;5.142;2022-07-24T14:56:23;3.25;;;1.40;;
67839;SDS011;54636;51.684;5.142;2022-07-24T14:58:48;1.35;;;1.25;;
67839;SDS011;54636;51.684;5.142;2022-07-24T15:01:13;1.35;;;1.25;;
67839;SDS011;54636;51.684;5.142;2022-07-24T15:03:39;1.73;;;1.25;;
67839;SDS011;54636;51.684;5.142;2022-07-24T15:06:05;2.10;;;1.30;;
67839;SDS011;54636;51.684;5.142;2022-07-24T15:08:30;2.55;;;0.95;;
67839;SDS011;54636;51.684;5.142;2022-07-24T15:10:56;1.50;;;1.40;;
67839;SDS011;54636;51.684;5.142;2022-07-24T15:13:21;1.80;;;1.65;;
67839;SDS011;54636;51.684;5.142;2022-07-24T15:15:46;7.13;;;1.88;;
67839;SDS011;54636;51.684;5.142;2022-07-24T15:18:16;1.67;;;1.58;;
67839;SDS011;54636;51.684;5.142;2022-07-24T15:20:42;1.65;;;1.55;;
67839;SDS011;54636;51.684;5.142;2022-07-24T15:23:08;4.10;;;1.60;;
67839;SDS011;54636;51.684;5.142;2022-07-24T15:25:33;2.65;;;1.60;;